createdAt,value
2023-05-23T00:00:55.022Z,39.46
2023-05-23T00:01:55.283Z,39.45
2023-05-23T00:02:55.340Z,39.47
2023-05-23T00:03:55.297Z,39.42
2023-05-23T00:04:55.257Z,39.47
2023-05-23T00:05:55.290Z,39.47
2023-05-23T00:06:55.334Z,39.48
2023-05-23T00:07:55.406Z,39.46
2023-05-23T00:08:55.461Z,39.37
2023-05-23T00:09:55.502Z,39.41
2023-05-23T00:10:55.681Z,39.43
2023-05-23T00:11:55.574Z,39.44
2023-05-23T00:12:55.604Z,39.43
2023-05-23T00:13:55.617Z,39.43
2023-05-23T00:14:55.670Z,39.35
2023-05-23T00:15:55.686Z,39.36
2023-05-23T00:16:55.778Z,39.39
2023-05-23T00:17:55.864Z,39.36
2023-05-23T00:18:55.934Z,39.36
2023-05-23T00:19:55.980Z,39.33
2023-05-23T00:20:55.948Z,39.34
2023-05-23T00:21:55.960Z,39.34
2023-05-23T00:22:56.002Z,39.34
2023-05-23T00:23:56.013Z,39.33
2023-05-23T00:24:56.077Z,39.28
2023-05-23T00:25:56.155Z,39.31
2023-05-23T00:26:56.339Z,39.33
2023-05-23T00:27:56.277Z,39.31
2023-05-23T00:28:56.356Z,39.38
2023-05-23T00:29:56.354Z,39.33
2023-05-23T00:30:56.458Z,39.32
2023-05-23T00:31:56.504Z,39.27
2023-05-23T00:32:56.599Z,39.25
2023-05-23T00:33:56.644Z,39.24
2023-05-23T00:34:56.723Z,39.30
2023-05-23T00:35:56.782Z,39.22
2023-05-23T00:36:56.837Z,39.25
2023-05-23T00:37:56.914Z,39.25
2023-05-23T00:38:56.991Z,39.27
2023-05-23T00:39:57.031Z,39.29
2023-05-23T00:40:57.103Z,39.22
2023-05-23T00:41:57.176Z,39.28
2023-05-23T00:42:57.319Z,39.22
2023-05-23T00:43:57.231Z,39.25
2023-05-23T00:44:57.266Z,39.21
2023-05-23T00:45:57.309Z,39.26
2023-05-23T00:46:57.423Z,39.25
2023-05-23T00:47:57.421Z,39.22
2023-05-23T00:48:57.456Z,39.25
2023-05-23T00:49:57.553Z,39.23
2023-05-23T00:50:57.539Z,39.21
2023-05-23T00:51:57.568Z,39.18
2023-05-23T00:52:57.648Z,39.21
2023-05-23T00:53:57.717Z,39.25
2023-05-23T00:54:57.794Z,39.16
2023-05-23T00:55:57.828Z,39.14
2023-05-23T00:56:57.879Z,39.21
2023-05-23T00:57:57.949Z,39.17
2023-05-23T00:58:58.149Z,39.16
2023-05-23T00:59:58.096Z,39.14
2023-05-23T01:00:58.153Z,39.13
2023-05-23T01:01:58.324Z,39.14
2023-05-23T01:02:58.335Z,39.11
2023-05-23T01:03:58.382Z,39.11
2023-05-23T01:04:58.392Z,39.13
2023-05-23T01:05:58.427Z,39.11
2023-05-23T01:06:58.490Z,39.13
2023-05-23T01:07:58.536Z,39.12
2023-05-23T01:08:58.598Z,39.12
2023-05-23T01:09:58.647Z,39.14
2023-05-23T01:10:58.693Z,39.13
2023-05-23T01:11:58.676Z,39.14
2023-05-23T01:12:58.679Z,39.11
2023-05-23T01:13:58.738Z,39.17
2023-05-23T01:14:58.934Z,39.12
2023-05-23T01:16:01.883Z,39.14
2023-05-23T01:16:58.872Z,39.17
2023-05-23T01:17:58.942Z,39.11
2023-05-23T01:18:58.871Z,39.09
2023-05-23T01:19:58.857Z,39.09
2023-05-23T01:20:58.848Z,39.12
2023-05-23T01:21:58.845Z,39.10
2023-05-23T01:22:58.853Z,39.06
2023-05-23T01:23:58.842Z,39.08
2023-05-23T01:24:58.833Z,39.13
2023-05-23T01:25:58.839Z,39.13
2023-05-23T01:26:58.894Z,39.10
2023-05-23T01:27:58.971Z,39.08
2023-05-23T01:28:59.029Z,39.09
2023-05-23T01:29:59.053Z,39.06
2023-05-23T01:30:59.173Z,39.06
2023-05-23T01:31:59.241Z,39.09
2023-05-23T01:32:59.304Z,39.08
2023-05-23T01:33:59.217Z,39.09
2023-05-23T01:34:59.284Z,39.05
2023-05-23T01:35:59.324Z,39.05
2023-05-23T01:36:59.418Z,39.10
2023-05-23T01:37:59.472Z,39.05
2023-05-23T01:38:59.550Z,39.09
2023-05-23T01:39:59.600Z,39.03
2023-05-23T01:40:59.661Z,39.03
2023-05-23T01:41:59.741Z,39.08
2023-05-23T01:42:59.774Z,39.06
2023-05-23T01:43:59.829Z,39.05
2023-05-23T01:44:59.847Z,39.06
2023-05-23T01:45:59.948Z,39.11
2023-05-23T01:47:00.131Z,39.05
2023-05-23T01:48:00.017Z,39.04
2023-05-23T01:48:59.973Z,39.05
2023-05-23T01:50:00.024Z,39.08
2023-05-23T01:51:00.061Z,39.06
2023-05-23T01:52:00.078Z,39.06
2023-05-23T01:53:00.088Z,39.09
2023-05-23T01:54:00.096Z,39.05
2023-05-23T01:55:00.175Z,39.04
2023-05-23T01:56:00.200Z,39.05
2023-05-23T01:57:00.251Z,39.11
2023-05-23T01:58:00.283Z,39.05
2023-05-23T01:59:00.318Z,39.05
2023-05-23T02:00:00.364Z,39.08
2023-05-23T02:01:00.449Z,39.10
2023-05-23T02:02:00.504Z,39.10
2023-05-23T02:03:00.762Z,39.08
2023-05-23T02:04:00.565Z,39.08
2023-05-23T02:05:00.587Z,39.04
2023-05-23T02:06:00.651Z,39.04
2023-05-23T02:07:00.678Z,39.05
2023-05-23T02:08:00.753Z,39.05
2023-05-23T02:09:00.825Z,39.06
2023-05-23T02:10:00.883Z,39.04
2023-05-23T02:11:00.929Z,39.08
2023-05-23T02:12:00.976Z,39.07
2023-05-23T02:13:01.061Z,39.04
2023-05-23T02:14:01.121Z,39.02
2023-05-23T02:15:01.185Z,39.08
2023-05-23T02:16:01.252Z,39.04
2023-05-23T02:17:01.359Z,39.01
2023-05-23T02:18:01.397Z,39.06
2023-05-23T02:19:01.579Z,39.04
2023-05-23T02:20:01.534Z,39.00
2023-05-23T02:21:01.545Z,39.02
2023-05-23T02:22:01.605Z,39.04
2023-05-23T02:23:01.639Z,39.04
2023-05-23T02:24:01.672Z,38.99
2023-05-23T02:25:01.718Z,39.04
2023-05-23T02:26:01.812Z,39.05
2023-05-23T02:27:02.396Z,39.06
2023-05-23T02:28:01.794Z,39.07
2023-05-23T02:29:01.801Z,39.00
2023-05-23T02:30:01.912Z,38.98
2023-05-23T02:31:02.017Z,39.01
2023-05-23T02:32:02.002Z,39.02
2023-05-23T02:33:02.098Z,39.04
2023-05-23T02:34:02.039Z,39.02
2023-05-23T02:35:02.236Z,39.02
2023-05-23T02:36:02.187Z,38.97
2023-05-23T02:37:02.229Z,38.97
2023-05-23T02:38:02.279Z,39.02
2023-05-23T02:39:02.257Z,38.96
2023-05-23T02:40:02.294Z,39.00
2023-05-23T02:41:02.338Z,38.93
2023-05-23T02:42:02.340Z,38.93
2023-05-23T02:43:02.404Z,38.92
2023-05-23T02:44:02.461Z,38.93
2023-05-23T02:45:02.538Z,38.97
2023-05-23T02:46:02.603Z,38.94
2023-05-23T02:47:02.566Z,38.96
2023-05-23T02:48:02.591Z,38.90
2023-05-23T02:49:02.566Z,38.89
2023-05-23T02:50:02.567Z,38.92
2023-05-23T02:51:02.706Z,38.92
2023-05-23T02:52:02.656Z,38.90
2023-05-23T02:53:02.700Z,38.92
2023-05-23T02:54:02.722Z,38.89
2023-05-23T02:55:02.815Z,38.89
2023-05-23T02:56:02.837Z,38.90
2023-05-23T02:57:02.859Z,38.92
2023-05-23T02:58:02.903Z,38.93
2023-05-23T02:59:02.900Z,38.88
2023-05-23T03:00:02.931Z,38.93
2023-05-23T03:01:02.977Z,38.89
2023-05-23T03:02:03.013Z,38.86
2023-05-23T03:03:03.149Z,38.92
2023-05-23T03:04:03.135Z,38.92
2023-05-23T03:05:03.088Z,38.91
2023-05-23T03:06:03.135Z,38.92
2023-05-23T03:07:05.333Z,38.91
2023-05-23T03:08:03.906Z,38.93
2023-05-23T03:09:03.189Z,38.93
2023-05-23T03:10:03.214Z,38.96
2023-05-23T03:11:03.179Z,38.89
2023-05-23T03:12:03.193Z,38.91
2023-05-23T03:13:03.196Z,38.85
2023-05-23T03:14:03.204Z,38.91
2023-05-23T03:15:03.215Z,38.89
2023-05-23T03:16:03.249Z,38.88
2023-05-23T03:17:03.206Z,38.91
2023-05-23T03:18:03.270Z,38.89
2023-05-23T03:19:03.235Z,38.90
2023-05-23T03:20:03.203Z,38.90
2023-05-23T03:21:03.214Z,38.91
2023-05-23T03:22:03.910Z,38.89
2023-05-23T03:23:03.355Z,38.88
2023-05-23T03:24:03.241Z,38.91
2023-05-23T03:25:03.229Z,38.90
2023-05-23T03:26:03.228Z,38.89
2023-05-23T03:27:03.281Z,38.89
2023-05-23T03:28:03.352Z,38.90
2023-05-23T03:29:03.383Z,38.90
2023-05-23T03:30:03.391Z,38.93
2023-05-23T03:31:03.452Z,38.93
2023-05-23T03:32:03.462Z,38.90
2023-05-23T03:33:03.591Z,38.88
2023-05-23T03:34:03.509Z,38.89
2023-05-23T03:35:03.591Z,38.90
2023-05-23T03:36:03.666Z,38.91
2023-05-23T03:37:03.713Z,38.85
2023-05-23T03:38:03.787Z,38.91
2023-05-23T03:39:04.004Z,38.89
2023-05-23T03:40:03.933Z,38.90
2023-05-23T03:41:03.980Z,38.91
2023-05-23T03:42:04.017Z,38.93
2023-05-23T03:43:04.090Z,38.89
2023-05-23T03:44:04.138Z,38.93
2023-05-23T03:45:04.179Z,38.91
2023-05-23T03:46:04.283Z,38.91
2023-05-23T03:47:04.331Z,38.88
2023-05-23T03:48:04.508Z,38.91
2023-05-23T03:49:04.486Z,38.90
2023-05-23T03:50:04.563Z,38.91
2023-05-23T03:51:04.630Z,38.90
2023-05-23T03:52:04.669Z,38.93
2023-05-23T03:53:04.726Z,38.90
2023-05-23T03:54:04.794Z,38.89
2023-05-23T03:55:04.997Z,38.90
2023-05-23T03:56:04.915Z,38.90
2023-05-23T03:57:04.952Z,38.88
2023-05-23T03:58:04.959Z,38.88
2023-05-23T03:59:05.057Z,38.89
2023-05-23T04:00:05.124Z,38.88
2023-05-23T04:01:05.170Z,38.90
2023-05-23T04:02:05.244Z,38.89
2023-05-23T04:03:05.460Z,38.88
2023-05-23T04:04:05.332Z,38.90
2023-05-23T04:05:05.294Z,38.89
2023-05-23T04:06:05.341Z,38.91
2023-05-23T04:07:05.382Z,38.88
2023-05-23T04:08:05.412Z,38.93
2023-05-23T04:09:05.408Z,38.83
2023-05-23T04:10:05.412Z,38.91
2023-05-23T04:11:05.542Z,38.88
2023-05-23T04:12:05.442Z,38.87
2023-05-23T04:13:05.470Z,38.94
2023-05-23T04:14:05.494Z,38.93
2023-05-23T04:15:05.519Z,38.89
2023-05-23T04:16:05.595Z,38.91
2023-05-23T04:17:05.570Z,38.89
2023-05-23T04:18:05.682Z,38.96
2023-05-23T04:19:06.102Z,38.93
2023-05-23T04:20:05.694Z,38.89
2023-05-23T04:21:05.706Z,38.93
2023-05-23T04:22:05.830Z,38.93
2023-05-23T04:23:05.842Z,38.91
2023-05-23T04:24:05.825Z,38.93
2023-05-23T04:25:05.861Z,38.91
2023-05-23T04:26:05.901Z,38.93
2023-05-23T04:27:06.056Z,38.91
2023-05-23T04:28:05.961Z,38.89
2023-05-23T04:29:06.241Z,38.91
2023-05-23T04:30:06.018Z,38.94
2023-05-23T04:31:06.093Z,38.94
2023-05-23T04:32:06.082Z,38.94
2023-05-23T04:33:06.213Z,38.91
2023-05-23T04:34:06.179Z,38.96
2023-05-23T04:35:06.208Z,38.94
2023-05-23T04:36:06.270Z,38.96
2023-05-23T04:37:06.301Z,38.93
2023-05-23T04:38:06.345Z,38.98
2023-05-23T04:39:06.386Z,38.94
2023-05-23T04:40:06.400Z,38.94
2023-05-23T04:41:06.428Z,38.94
2023-05-23T04:42:06.446Z,38.91
2023-05-23T04:43:06.604Z,38.91
2023-05-23T04:44:06.488Z,38.93
2023-05-23T04:45:06.516Z,39.00
2023-05-23T04:46:06.515Z,38.96
2023-05-23T04:47:06.689Z,38.93
2023-05-23T04:48:06.685Z,39.00
2023-05-23T04:49:06.658Z,38.96
2023-05-23T04:50:06.669Z,38.99
2023-05-23T04:51:06.697Z,38.98
2023-05-23T04:52:06.738Z,38.95
2023-05-23T04:53:06.772Z,38.98
2023-05-23T04:54:06.807Z,38.96
2023-05-23T04:55:06.844Z,38.93
2023-05-23T04:56:06.882Z,38.99
2023-05-23T04:57:06.912Z,38.94
2023-05-23T04:58:06.972Z,38.95
2023-05-23T04:59:07.158Z,38.98
2023-05-23T05:00:07.056Z,39.01
2023-05-23T05:01:07.118Z,39.00
2023-05-23T05:02:07.100Z,38.98
2023-05-23T05:03:07.182Z,38.99
2023-05-23T05:04:07.245Z,39.01
2023-05-23T05:05:07.256Z,38.99
2023-05-23T05:06:07.236Z,39.00
2023-05-23T05:07:07.246Z,39.02
2023-05-23T05:08:07.250Z,39.02
2023-05-23T05:09:07.265Z,39.05
2023-05-23T05:10:07.332Z,39.01
2023-05-23T05:11:07.319Z,39.04
2023-05-23T05:12:07.311Z,39.04
2023-05-23T05:13:07.342Z,39.05
2023-05-23T05:14:07.354Z,39.05
2023-05-23T05:15:07.579Z,39.02
2023-05-23T05:16:07.420Z,39.03
2023-05-23T05:17:07.551Z,39.11
2023-05-23T05:18:07.566Z,39.08
2023-05-23T05:19:07.596Z,39.08
2023-05-23T05:20:07.966Z,39.06
2023-05-23T05:21:07.666Z,39.08
2023-05-23T05:22:07.696Z,39.09
2023-05-23T05:23:07.755Z,39.04
2023-05-23T05:24:07.810Z,39.07
2023-05-23T05:25:07.801Z,39.05
2023-05-23T05:26:07.859Z,39.11
2023-05-23T05:27:07.873Z,39.09
2023-05-23T05:28:07.901Z,39.10
2023-05-23T05:29:07.971Z,39.09
2023-05-23T05:30:08.036Z,39.06
2023-05-23T05:31:08.204Z,39.09
2023-05-23T05:32:08.003Z,39.08
2023-05-23T05:33:08.532Z,39.08
2023-05-23T05:34:08.036Z,39.11
2023-05-23T05:35:08.090Z,39.08
2023-05-23T05:36:08.147Z,39.10
2023-05-23T05:37:08.132Z,39.12
2023-05-23T05:38:08.166Z,39.16
2023-05-23T05:39:08.184Z,39.16
2023-05-23T05:40:08.222Z,39.12
2023-05-23T05:41:09.426Z,39.16
2023-05-23T05:42:08.358Z,39.16
2023-05-23T05:43:08.421Z,39.16
2023-05-23T05:44:08.463Z,39.17
2023-05-23T05:45:08.523Z,39.16
2023-05-23T05:46:08.557Z,39.14
2023-05-23T05:47:08.685Z,39.13
2023-05-23T05:48:08.708Z,39.12
2023-05-23T05:49:10.247Z,39.16
2023-05-23T05:50:08.711Z,39.09
2023-05-23T05:51:09.715Z,39.19
2023-05-23T05:52:08.789Z,39.15
2023-05-23T05:53:08.724Z,39.13
2023-05-23T05:54:09.007Z,39.14
2023-05-23T05:56:09.746Z,39.19
2023-05-23T05:58:16.183Z,39.33
2023-05-23T05:59:09.258Z,39.74
2023-05-23T06:00:08.748Z,40.01
2023-05-23T06:01:08.831Z,40.17
2023-05-23T06:02:09.108Z,40.37
2023-05-23T06:03:10.011Z,40.48
2023-05-23T06:05:08.828Z,40.96
2023-05-23T06:06:08.768Z,41.20
2023-05-23T06:07:09.044Z,41.07
2023-05-23T06:08:09.084Z,41.30
2023-05-23T06:09:10.580Z,41.49
2023-05-23T06:10:09.554Z,41.39
2023-05-23T06:11:09.530Z,41.44
2023-05-23T06:12:09.096Z,41.40
2023-05-23T06:13:08.821Z,41.42
2023-05-23T06:14:09.424Z,41.39
2023-05-23T06:15:09.442Z,41.75
2023-05-23T06:16:09.299Z,42.11
2023-05-23T06:17:10.179Z,42.25
2023-05-23T06:18:09.455Z,42.57
2023-05-23T06:19:09.460Z,43.02
2023-05-23T06:20:09.305Z,43.04
2023-05-23T06:21:09.491Z,42.90
2023-05-23T06:22:09.213Z,43.33
2023-05-23T06:23:09.765Z,43.23
2023-05-23T06:24:09.112Z,43.27
2023-05-23T06:25:09.927Z,43.37
2023-05-23T06:26:09.708Z,43.47
2023-05-23T06:27:09.750Z,43.52
2023-05-23T06:28:09.838Z,43.62
2023-05-23T06:29:10.118Z,43.68
2023-05-23T06:30:10.041Z,43.78
2023-05-23T06:31:09.591Z,43.90
2023-05-23T06:32:10.241Z,43.94
2023-05-23T06:33:10.070Z,44.05
2023-05-23T06:34:10.148Z,44.20
2023-05-23T06:35:10.501Z,44.31
2023-05-23T06:36:10.333Z,44.38
2023-05-23T06:37:10.896Z,44.37
2023-05-23T06:38:10.614Z,44.43
2023-05-23T06:39:10.647Z,44.49
2023-05-23T06:40:11.053Z,44.64
2023-05-23T06:41:11.332Z,44.59
2023-05-23T06:42:10.825Z,44.64
2023-05-23T06:44:10.555Z,44.80
2023-05-23T06:45:11.417Z,44.91
2023-05-23T06:46:14.111Z,45.06
2023-05-23T06:47:17.928Z,45.19
2023-05-23T06:48:17.959Z,45.62
2023-05-23T06:49:15.187Z,45.39
2023-05-23T06:50:18.493Z,45.45
2023-05-23T06:51:10.663Z,45.46
2023-05-23T06:52:11.626Z,45.53
2023-05-23T06:53:10.845Z,45.57
2023-05-23T06:54:10.536Z,45.74
2023-05-23T06:55:10.520Z,45.80
2023-05-23T06:56:10.876Z,46.00
2023-05-23T06:57:10.811Z,46.15
2023-05-23T06:58:11.197Z,46.34
2023-05-23T06:59:10.939Z,46.36
2023-05-23T07:00:10.393Z,46.46
2023-05-23T07:01:10.989Z,46.56
2023-05-23T07:02:11.025Z,46.65
2023-05-23T07:03:11.563Z,46.80
2023-05-23T07:04:10.566Z,46.91
2023-05-23T07:05:11.687Z,46.85
2023-05-23T07:06:11.289Z,46.83
2023-05-23T07:07:11.016Z,46.84
2023-05-23T07:08:11.562Z,46.80
2023-05-23T07:09:11.090Z,46.80
2023-05-23T07:10:11.017Z,46.75
2023-05-23T07:11:11.147Z,46.76
2023-05-23T07:12:11.205Z,46.60
2023-05-23T07:13:11.457Z,46.61
2023-05-23T07:14:11.153Z,46.57
2023-05-23T07:15:11.069Z,46.54
2023-05-23T07:16:10.988Z,46.55
2023-05-23T07:17:11.158Z,46.52
2023-05-23T07:18:11.029Z,46.45
2023-05-23T07:19:11.116Z,46.49
2023-05-23T07:20:11.514Z,46.47
2023-05-23T07:21:11.098Z,46.36
2023-05-23T07:22:11.661Z,46.35
2023-05-23T07:23:11.143Z,46.35
2023-05-23T07:24:11.128Z,46.29
2023-05-23T07:25:11.158Z,46.25
2023-05-23T07:26:11.167Z,46.26
2023-05-23T07:27:11.182Z,46.24
2023-05-23T07:28:11.198Z,46.27
2023-05-23T07:29:11.213Z,46.29
2023-05-23T07:30:11.511Z,46.21
2023-05-23T07:31:11.278Z,46.21
2023-05-23T07:32:11.342Z,46.22
2023-05-23T07:33:11.561Z,46.22
2023-05-23T07:34:11.303Z,46.19
2023-05-23T07:35:11.517Z,46.24
2023-05-23T07:36:11.330Z,46.21
2023-05-23T07:38:11.383Z,46.30
2023-05-23T07:41:26.965Z,46.05
2023-05-23T07:42:12.538Z,46.04
2023-05-23T07:43:11.488Z,46.09
2023-05-23T07:44:12.421Z,46.12
2023-05-23T07:45:12.530Z,46.03
2023-05-23T07:47:11.376Z,45.85
2023-05-23T07:48:12.373Z,45.79
2023-05-23T07:49:14.576Z,45.81
2023-05-23T07:50:11.521Z,45.83
2023-05-23T07:51:11.383Z,45.86
2023-05-23T07:52:11.422Z,45.86
2023-05-23T07:53:11.397Z,45.76
2023-05-23T07:54:11.395Z,45.83
2023-05-23T07:55:11.533Z,45.91
2023-05-23T07:56:11.354Z,45.92
2023-05-23T07:57:12.358Z,46.00
2023-05-23T07:58:11.365Z,45.98
2023-05-23T07:59:11.355Z,45.96
2023-05-23T08:00:14.728Z,45.92
2023-05-23T08:01:11.359Z,45.90
2023-05-23T08:02:11.423Z,45.97
2023-05-23T08:03:12.152Z,45.98
2023-05-23T08:04:18.776Z,46.00
2023-05-23T08:05:11.544Z,45.99
2023-05-23T08:06:11.529Z,46.10
2023-05-23T08:07:11.378Z,46.09
2023-05-23T08:08:11.370Z,46.10
2023-05-23T08:09:11.368Z,46.18
2023-05-23T08:10:14.788Z,46.28
2023-05-23T08:11:14.592Z,46.28
2023-05-23T08:12:11.367Z,46.27
2023-05-23T08:13:11.359Z,46.18
2023-05-23T08:14:11.344Z,46.34
2023-05-23T08:15:11.547Z,46.39
2023-05-23T08:16:11.411Z,46.33
2023-05-23T08:17:11.507Z,46.33
2023-05-23T08:18:11.424Z,46.28
2023-05-23T08:19:11.542Z,46.34
2023-05-23T08:20:14.764Z,46.37
2023-05-23T08:21:11.322Z,46.41
2023-05-23T08:22:11.313Z,46.33
2023-05-23T08:23:12.317Z,46.61
2023-05-23T08:24:14.042Z,46.92
2023-05-23T08:25:11.326Z,46.72
2023-05-23T08:26:11.319Z,46.52
2023-05-23T08:27:12.308Z,46.58
2023-05-23T08:28:12.279Z,46.62
2023-05-23T08:29:11.292Z,46.69
2023-05-23T08:30:11.557Z,46.60
2023-05-23T08:31:11.293Z,46.66
2023-05-23T08:32:13.555Z,46.59
2023-05-23T08:33:11.362Z,46.57
2023-05-23T08:34:11.314Z,46.88
2023-05-23T08:35:11.556Z,46.79
2023-05-23T08:36:11.343Z,46.70
2023-05-23T08:37:14.518Z,46.79
2023-05-23T08:38:11.354Z,46.80
2023-05-23T08:39:13.272Z,46.86
2023-05-23T08:40:11.554Z,46.93
2023-05-23T08:41:11.325Z,46.92
2023-05-23T08:42:12.410Z,46.98
2023-05-23T08:43:11.296Z,47.00
2023-05-23T08:44:11.309Z,47.13
2023-05-23T08:45:11.550Z,47.17
2023-05-23T08:46:11.394Z,47.13
2023-05-23T08:47:11.391Z,47.27
2023-05-23T08:48:11.281Z,47.25
2023-05-23T08:49:26.937Z,47.28
2023-05-23T08:50:21.150Z,47.37
2023-05-23T08:51:12.275Z,47.40
2023-05-23T08:52:11.264Z,47.37
2023-05-23T08:53:12.254Z,47.55
2023-05-23T08:54:11.248Z,47.63
2023-05-23T08:55:12.221Z,47.66
2023-05-23T08:56:11.279Z,47.65
2023-05-23T08:57:11.261Z,47.67
2023-05-23T08:58:11.271Z,47.63
2023-05-23T08:59:11.254Z,47.81
2023-05-23T09:00:11.561Z,47.83
2023-05-23T09:01:11.265Z,47.81
2023-05-23T09:02:11.219Z,47.89
2023-05-23T09:03:11.246Z,47.93
2023-05-23T09:04:11.230Z,48.01
2023-05-23T09:05:11.289Z,47.97
2023-05-23T09:06:11.260Z,48.00
2023-05-23T09:07:11.560Z,47.97
2023-05-23T09:08:11.264Z,48.04
2023-05-23T09:09:11.233Z,48.06
2023-05-23T09:10:11.565Z,48.02
2023-05-23T09:11:11.165Z,48.11
2023-05-23T09:12:11.164Z,48.18
2023-05-23T09:13:11.135Z,48.18
2023-05-23T09:14:11.160Z,48.21
2023-05-23T09:15:11.557Z,48.22
2023-05-23T09:16:11.201Z,48.37
2023-05-23T09:17:11.121Z,48.28
2023-05-23T09:18:11.125Z,48.40
2023-05-23T09:19:11.191Z,48.41
2023-05-23T09:20:11.563Z,48.53
2023-05-23T09:21:11.111Z,48.41
2023-05-23T09:22:11.111Z,48.48
2023-05-23T09:23:11.117Z,48.38
2023-05-23T09:24:11.130Z,48.46
2023-05-23T09:25:11.577Z,48.61
2023-05-23T09:26:12.069Z,48.64
2023-05-23T09:27:11.159Z,48.59
2023-05-23T09:28:11.161Z,48.43
2023-05-23T09:29:12.201Z,48.28
2023-05-23T09:30:14.827Z,48.20
2023-05-23T09:31:14.374Z,48.10
2023-05-23T09:33:11.202Z,47.89
2023-05-23T09:34:11.172Z,47.85
2023-05-23T09:35:11.586Z,47.88
2023-05-23T09:36:11.160Z,47.78
2023-05-23T09:37:11.137Z,47.76
2023-05-23T09:38:11.605Z,47.72
2023-05-23T09:39:11.137Z,47.70
2023-05-23T09:40:11.651Z,47.60
2023-05-23T09:41:11.163Z,47.61
2023-05-23T09:42:11.166Z,47.56
2023-05-23T09:43:14.392Z,47.51
2023-05-23T09:44:12.151Z,47.56
2023-05-23T09:45:11.579Z,47.48
2023-05-23T09:46:11.602Z,47.50
2023-05-23T09:47:11.240Z,47.55
2023-05-23T09:48:11.296Z,47.57
2023-05-23T09:49:11.188Z,47.64
2023-05-23T09:50:18.589Z,47.57
2023-05-23T09:51:11.195Z,47.64
2023-05-23T09:52:11.225Z,47.66
2023-05-23T09:53:11.211Z,47.65
2023-05-23T09:54:11.196Z,47.64
2023-05-23T09:55:11.193Z,47.57
2023-05-23T09:56:11.618Z,47.57
2023-05-23T09:57:11.239Z,47.50
2023-05-23T09:58:12.197Z,47.64
2023-05-23T09:59:11.193Z,47.53
2023-05-23T10:00:11.220Z,47.53
2023-05-23T10:01:11.736Z,47.49
2023-05-23T10:02:11.217Z,47.47
2023-05-23T10:03:11.301Z,47.51
2023-05-23T10:04:11.247Z,47.46
2023-05-23T10:05:11.205Z,47.50
2023-05-23T10:06:11.643Z,47.68
2023-05-23T10:07:11.258Z,47.83
2023-05-23T10:08:11.168Z,47.81
2023-05-23T10:09:11.177Z,47.83
2023-05-23T10:10:12.627Z,47.92
2023-05-23T10:11:11.607Z,47.95
2023-05-23T10:12:12.586Z,48.01
2023-05-23T10:13:11.185Z,48.04
2023-05-23T10:14:12.166Z,48.05
2023-05-23T10:15:12.207Z,48.03
2023-05-23T10:16:11.593Z,48.08
2023-05-23T10:17:11.390Z,48.12
2023-05-23T10:18:11.630Z,48.19
2023-05-23T10:19:11.268Z,48.26
2023-05-23T10:20:11.234Z,48.37
2023-05-23T10:21:11.251Z,48.34
2023-05-23T10:22:11.629Z,48.32
2023-05-23T10:23:11.293Z,48.27
2023-05-23T10:24:11.257Z,48.30
2023-05-23T10:25:12.593Z,48.32
2023-05-23T10:26:11.270Z,48.30
2023-05-23T10:27:11.598Z,48.26
2023-05-23T10:28:11.624Z,48.17
2023-05-23T10:29:11.290Z,48.15
2023-05-23T10:30:11.319Z,48.21
2023-05-23T10:31:11.356Z,47.98
2023-05-23T10:32:11.358Z,48.11
2023-05-23T10:33:11.619Z,48.25
2023-05-23T10:34:11.451Z,48.34
2023-05-23T10:35:11.594Z,48.43
2023-05-23T10:36:11.397Z,48.43
2023-05-23T10:37:11.601Z,48.47
2023-05-23T10:38:11.380Z,48.54
2023-05-23T10:39:11.436Z,48.53
2023-05-23T10:40:11.397Z,48.63
2023-05-23T10:41:11.392Z,48.76
2023-05-23T10:42:11.456Z,48.71
2023-05-23T10:43:11.458Z,48.79
2023-05-23T10:44:11.413Z,48.84
2023-05-23T10:45:11.612Z,49.01
2023-05-23T10:46:11.559Z,48.97
2023-05-23T10:47:11.444Z,48.98
2023-05-23T10:48:14.760Z,49.16
2023-05-23T10:49:11.441Z,49.19
2023-05-23T10:50:11.618Z,49.30
2023-05-23T10:51:11.621Z,49.25
2023-05-23T10:52:11.438Z,49.26
2023-05-23T10:53:11.449Z,49.17
2023-05-23T10:54:11.473Z,49.31
2023-05-23T10:55:11.391Z,49.26
2023-05-23T10:56:11.605Z,49.32
2023-05-23T10:57:11.343Z,49.40
2023-05-23T10:58:11.329Z,49.46
2023-05-23T10:59:11.313Z,49.58
2023-05-23T11:00:11.607Z,49.58
2023-05-23T11:01:11.290Z,49.55
2023-05-23T11:02:11.353Z,49.75
2023-05-23T11:03:11.296Z,49.72
2023-05-23T11:04:11.281Z,49.62
2023-05-23T11:05:11.604Z,49.45
2023-05-23T11:06:11.325Z,49.38
2023-05-23T11:07:11.225Z,49.38
2023-05-23T11:08:11.623Z,49.31
2023-05-23T11:09:11.335Z,49.24
2023-05-23T11:10:11.632Z,49.20
2023-05-23T11:11:11.400Z,49.10
2023-05-23T11:12:11.462Z,48.97
2023-05-23T11:13:11.604Z,48.94
2023-05-23T11:14:11.479Z,48.97
2023-05-23T11:15:11.606Z,48.95
2023-05-23T11:16:12.091Z,48.86
2023-05-23T11:17:12.356Z,48.89
2023-05-23T11:18:11.650Z,48.80
2023-05-23T11:19:12.167Z,48.76
2023-05-23T11:20:12.120Z,48.75
2023-05-23T11:21:11.781Z,48.71
2023-05-23T11:22:13.629Z,48.84
2023-05-23T11:23:11.773Z,48.86
2023-05-23T11:24:11.773Z,48.90
2023-05-23T11:25:12.161Z,49.11
2023-05-23T11:26:11.731Z,49.16
2023-05-23T11:27:11.838Z,49.03
2023-05-23T11:28:13.674Z,49.01
2023-05-23T11:29:11.673Z,48.95
2023-05-23T11:30:12.217Z,48.97
2023-05-23T11:31:11.657Z,48.95
2023-05-23T11:32:16.853Z,48.97
2023-05-23T11:33:11.666Z,48.93
2023-05-23T11:34:11.606Z,48.94
2023-05-23T11:35:11.769Z,48.86
2023-05-23T11:36:11.619Z,48.86
2023-05-23T11:37:11.658Z,48.79
2023-05-23T11:38:11.614Z,48.52
2023-05-23T11:39:11.577Z,48.63
2023-05-23T11:40:11.625Z,48.61
2023-05-23T11:41:11.564Z,48.63
2023-05-23T11:42:11.551Z,48.64
2023-05-23T11:43:11.561Z,48.70
2023-05-23T11:44:12.544Z,48.70
2023-05-23T11:45:11.624Z,48.84
2023-05-23T11:46:11.552Z,48.86
2023-05-23T11:47:11.567Z,48.94
2023-05-23T11:48:11.540Z,49.00
2023-05-23T11:49:11.535Z,49.10
2023-05-23T11:50:11.715Z,49.18
2023-05-23T11:51:11.549Z,49.19
2023-05-23T11:52:12.555Z,49.33
2023-05-23T11:53:11.712Z,49.24
2023-05-23T11:54:12.181Z,49.20
2023-05-23T11:55:11.748Z,49.22
2023-05-23T11:56:11.794Z,49.24
2023-05-23T11:57:11.806Z,49.20
2023-05-23T11:58:11.845Z,49.18
2023-05-23T11:59:12.226Z,49.09
2023-05-23T12:00:13.136Z,49.02
2023-05-23T12:01:11.965Z,48.97
2023-05-23T12:02:12.033Z,48.93
2023-05-23T12:03:12.194Z,48.75
2023-05-23T12:04:12.163Z,48.71
2023-05-23T12:05:12.146Z,48.68
2023-05-23T12:06:14.268Z,48.68
2023-05-23T12:07:12.173Z,48.62
2023-05-23T12:08:12.132Z,48.44
2023-05-23T12:09:12.118Z,48.41
2023-05-23T12:10:12.165Z,48.37
2023-05-23T12:11:12.100Z,48.29
2023-05-23T12:12:12.098Z,48.27
2023-05-23T12:13:12.100Z,48.25
2023-05-23T12:14:12.099Z,48.19
2023-05-23T12:15:12.138Z,48.17
2023-05-23T12:16:12.117Z,48.14
2023-05-23T12:17:12.133Z,48.11
2023-05-23T12:18:12.091Z,48.04
2023-05-23T12:19:12.116Z,48.03
2023-05-23T12:20:12.150Z,48.04
2023-05-23T12:21:15.301Z,48.02
2023-05-23T12:22:11.994Z,47.98
2023-05-23T12:23:15.218Z,48.02
2023-05-23T12:24:11.988Z,47.98
2023-05-23T12:25:12.153Z,47.96
2023-05-23T12:26:11.985Z,47.98
2023-05-23T12:27:11.947Z,47.95
2023-05-23T12:28:12.363Z,47.92
2023-05-23T12:29:11.922Z,47.89
2023-05-23T12:30:12.165Z,47.87
2023-05-23T12:31:11.948Z,47.87
2023-05-23T12:32:11.894Z,47.76
2023-05-23T12:33:11.883Z,47.71
2023-05-23T12:34:13.157Z,47.71
2023-05-23T12:35:15.053Z,47.70
2023-05-23T12:36:11.906Z,47.62
2023-05-23T12:37:19.850Z,47.58
2023-05-23T12:38:11.817Z,47.58
2023-05-23T12:39:11.805Z,47.52
2023-05-23T12:40:11.786Z,47.48
2023-05-23T12:41:12.153Z,47.44
2023-05-23T12:42:11.804Z,47.41
2023-05-23T12:43:11.746Z,47.43
2023-05-23T12:44:11.729Z,47.37
2023-05-23T12:45:11.736Z,47.35
2023-05-23T12:46:12.172Z,47.33
2023-05-23T12:47:11.914Z,47.32
2023-05-23T12:48:11.793Z,47.31
2023-05-23T12:49:11.707Z,47.24
2023-05-23T12:50:12.174Z,47.21
2023-05-23T12:51:11.689Z,47.24
2023-05-23T12:52:11.702Z,47.24
2023-05-23T12:53:11.683Z,47.17
2023-05-23T12:54:12.069Z,47.21
2023-05-23T12:55:14.887Z,47.19
2023-05-23T12:56:19.054Z,47.14
2023-05-23T12:57:11.715Z,47.15
2023-05-23T12:58:11.659Z,47.09
2023-05-23T12:59:12.640Z,47.13
2023-05-23T13:00:11.720Z,47.13
2023-05-23T13:01:11.762Z,47.14
2023-05-23T13:02:11.663Z,47.14